Time;durP1;ratioP1;P1;durP2;ratioP2;P2;SDS_P1;SDS_P2;PMS_P1;PMS_P2;Temp;Humidity;BMP_temperature;BMP_pressure;BME280_temperature;BME280_humidity;BME280_pressure;Samples;Min_cycle;Max_cycle;Signal;HPM_P1;HPM_P2
2021/11/24 00:00:31;;;;;;;20.48;12.68;;;;;;;0.56;86.85;96511.88;4980190;28;20109;-58
2021/11/24 00:02:58;;;;;;;25.00;14.38;;;;;;;0.55;87.28;96517.44;4980279;28;20761;-59
2021/11/24 00:05:25;;;;;;;21.88;13.35;;;;;;;0.51;87.26;96511.81;4983699;28;20046;-60
2021/11/24 00:07:53;;;;;;;27.40;14.70;;;;;;;0.54;86.94;96518.50;4976942;28;20059;-59
2021/11/24 00:10:20;;;;;;;23.13;13.98;;;;;;;0.58;87.22;96514.25;4967274;28;20053;-60
2021/11/24 00:12:48;;;;;;;25.88;15.15;;;;;;;0.59;87.21;96521.22;4985236;28;20078;-60
2021/11/24 00:15:15;;;;;;;27.83;15.50;;;;;;;0.49;88.40;96519.28;4998578;28;20070;-60
2021/11/24 00:17:42;;;;;;;23.65;14.10;;;;;;;0.60;87.55;96523.63;4967373;28;20050;-60
2021/11/24 00:20:09;;;;;;;24.88;14.25;;;;;;;0.46;87.03;96517.91;4964036;28;20415;-59
2021/11/24 00:22:37;;;;;;;21.90;13.48;;;;;;;0.37;87.12;96514.09;4976694;28;20046;-59
2021/11/24 00:25:05;;;;;;;25.15;14.27;;;;;;;0.06;88.54;96509.53;4971940;28;20192;-60
2021/11/24 00:27:32;;;;;;;24.13;14.43;;;;;;;0.11;88.57;96507.75;4998966;28;20077;-59
2021/11/24 00:29:59;;;;;;;23.02;13.30;;;;;;;0.00;89.21;96495.41;4989531;28;20488;-59
2021/11/24 00:32:26;;;;;;;29.20;16.30;;;;;;;0.00;89.68;96498.06;4957697;28;20042;-57
2021/11/24 00:34:53;;;;;;;23.38;15.18;;;;;;;-0.15;90.14;96495.25;4985533;28;20097;-59
2021/11/24 00:37:20;;;;;;;26.27;15.23;;;;;;;-0.15;90.73;96493.38;4982391;28;20408;-58
2021/11/24 00:39:47;;;;;;;28.08;15.57;;;;;;;0.10;90.55;96492.84;4986915;28;20081;-57
2021/11/24 00:42:14;;;;;;;24.92;14.18;;;;;;;0.13;90.04;96491.50;4987221;28;20057;-57
2021/11/24 00:44:41;;;;;;;24.35;14.80;;;;;;;0.21;89.74;96491.88;4967935;28;20053;-59
2021/11/24 00:47:09;;;;;;;25.23;14.32;;;;;;;0.25;88.42;96478.84;4998547;28;20134;-59
2021/11/24 00:49:36;;;;;;;27.08;15.45;;;;;;;0.38;87.86;96494.41;4990337;28;20046;-60
2021/11/24 00:52:03;;;;;;;24.98;14.68;;;;;;;0.56;87.21;96495.91;4989697;28;20046;-60
2021/11/24 00:54:31;;;;;;;26.75;15.10;;;;;;;-0.11;90.50;96491.81;4969511;28;20069;-60
2021/11/24 00:56:58;;;;;;;22.55;13.55;;;;;;;0.28;87.94;96489.00;4962710;28;20046;-60
2021/11/24 00:59:25;;;;;;;22.17;13.43;;;;;;;0.20;87.90;96481.50;4974908;28;20507;-59
2021/11/24 01:01:52;;;;;;;23.98;13.98;;;;;;;0.25;87.97;96478.06;4989095;28;20057;-60
2021/11/24 01:04:19;;;;;;;24.55;14.52;;;;;;;0.01;88.26;96481.03;4989699;28;20046;-59
2021/11/24 01:06:46;;;;;;;27.00;15.10;;;;;;;-0.14;90.23;96481.69;4970403;28;20049;-60
2021/11/24 01:09:13;;;;;;;23.77;14.10;;;;;;;0.28;88.05;96488.19;4957816;28;20129;-60
2021/11/24 01:11:41;;;;;;;22.90;14.13;;;;;;;0.22;87.78;96477.50;4986206;28;20054;-60
2021/11/24 01:14:08;;;;;;;25.02;14.60;;;;;;;0.06;88.01;96478.41;4997675;28;20038;-60
2021/11/24 01:16:35;;;;;;;24.42;14.27;;;;;;;-0.06;89.04;96475.13;4989366;28;20061;-58
2021/11/24 01:19:02;;;;;;;28.10;14.73;;;;;;;0.09;88.68;96488.56;4984186;28;20047;-60
2021/11/24 01:21:29;;;;;;;28.38;16.50;;;;;;;-0.16;89.64;96482.97;4988183;28;20484;-56
2021/11/24 01:23:56;;;;;;;25.55;14.07;;;;;;;-0.04;88.45;96476.44;4985596;28;20074;-60
2021/11/24 01:26:23;;;;;;;26.35;15.13;;;;;;;-0.34;90.14;96484.91;4981997;28;20064;-59
2021/11/24 01:28:50;;;;;;;26.80;15.57;;;;;;;-0.25;89.69;96480.78;4983386;28;20497;-60
2021/11/24 01:31:19;;;;;;;25.63;14.68;;;;;;;0.21;88.83;96477.75;4980635;28;20042;-60
2021/11/24 01:33:46;;;;;;;22.98;14.55;;;;;;;0.36;87.48;96472.56;4985223;28;20116;-60
2021/11/24 01:36:13;;;;;;;24.15;14.18;;;;;;;0.56;86.13;96468.47;4979236;28;20051;-60
2021/11/24 01:38:40;;;;;;;28.48;15.50;;;;;;;0.52;85.99;96468.19;4988998;28;20133;-59
2021/11/24 01:41:07;;;;;;;26.77;14.75;;;;;;;0.43;85.66;96464.38;4991946;28;20156;-60
2021/11/24 01:43:34;;;;;;;27.45;14.75;;;;;;;0.45;86.02;96464.91;4989460;28;20200;-59
2021/11/24 01:46:01;;;;;;;24.75;15.10;;;;;;;0.21;87.00;96465.25;4990507;28;20050;-60
2021/11/24 01:48:28;;;;;;;25.20;14.10;;;;;;;0.08;88.63;96460.34;4985390;28;20578;-60
2021/11/24 01:50:58;;;;;;;27.35;15.50;;;;;;;0.26;87.05;96453.03;4993881;28;20479;-59
2021/11/24 01:53:28;;;;;;;25.15;14.80;;;;;;;0.23;86.23;96444.53;4990752;28;20042;-60
2021/11/24 01:55:58;;;;;;;27.63;14.18;;;;;;;0.18;86.34;96441.00;4983424;28;20042;-60
2021/11/24 01:58:26;;;;;;;25.23;14.93;;;;;;;0.14;86.97;96451.34;4971785;28;20042;-60
2021/11/24 02:00:53;;;;;;;24.38;14.18;;;;;;;0.19;86.75;96432.75;4999844;28;20046;-59
2021/11/24 02:03:20;;;;;;;28.02;14.57;;;;;;;0.37;86.14;96438.78;4988812;28;20054;-59
2021/11/24 02:05:47;;;;;;;29.50;15.95;;;;;;;0.14;87.14;96440.72;4991661;28;20046;-60
2021/11/24 02:08:14;;;;;;;40.08;18.92;;;;;;;-0.21;89.37;96429.75;4987796;28;20039;-60
2021/11/24 02:10:41;;;;;;;41.42;20.33;;;;;;;-0.49;91.30;96431.56;4975624;28;20468;-59
2021/11/24 02:13:08;;;;;;;40.60;20.38;;;;;;;-0.85;93.41;96427.72;4966992;28;20361;-59
2021/11/24 02:15:35;;;;;;;41.15;21.05;;;;;;;-0.68;93.85;96436.44;5000446;28;20047;-59
2021/11/24 02:18:05;;;;;;;42.63;21.23;;;;;;;-0.90;94.80;96427.66;4991900;28;20046;-60
2021/11/24 02:20:38;;;;;;;52.15;21.30;;;;;;;-0.91;95.58;96426.03;4984949;28;20512;-60
2021/11/24 02:23:07;;;;;;;43.92;21.20;;;;;;;-0.45;94.00;96426.59;4979319;28;20038;-59
2021/11/24 02:25:34;;;;;;;46.03;21.60;;;;;;;-0.27;93.72;96420.91;4982860;28;20431;-59
2021/11/24 02:28:02;;;;;;;45.15;21.27;;;;;;;-0.18;92.81;96426.59;4992108;28;20049;-60
2021/11/24 02:30:29;;;;;;;41.50;20.88;;;;;;;0.02;92.30;96421.44;4985138;28;20411;-60
2021/11/24 02:32:57;;;;;;;45.75;21.92;;;;;;;-0.21;93.44;96413.78;4973093;28;20420;-58
2021/11/24 02:35:24;;;;;;;45.92;22.30;;;;;;;-0.28;93.14;96403.38;4985650;28;20530;-59
2021/11/24 02:37:51;;;;;;;39.90;20.38;;;;;;;0.01;92.23;96403.09;4972088;28;20052;-59
2021/11/24 02:40:31;;;;;;;49.72;23.13;;;;;;;-0.21;92.78;96393.31;4983554;28;20409;-58
2021/11/24 02:42:58;;;;;;;46.47;22.50;;;;;;;-0.12;92.26;96389.16;4987541;28;20049;-58
2021/11/24 02:45:26;;;;;;;49.80;22.55;;;;;;;-0.35;93.41;96379.63;4969030;28;20055;-59
2021/11/24 02:47:53;;;;;;;56.70;23.77;;;;;;;-0.54;96.00;96381.03;4975508;28;20047;-60
2021/11/24 02:50:20;;;;;;;55.83;25.20;;;;;;;0.20;93.15;96369.72;4985970;28;20042;-60
2021/11/24 02:52:50;;;;;;;51.10;23.77;;;;;;;0.41;91.59;96362.66;4978168;28;20118;-59
2021/11/24 02:55:17;;;;;;;46.47;21.25;;;;;;;0.15;92.30;96365.16;4970061;28;20073;-58
2021/11/24 02:57:48;;;;;;;44.67;21.70;;;;;;;0.40;91.25;96355.75;4975498;28;20035;-59
2021/11/24 03:00:19;;;;;;;49.15;24.15;;;;;;;0.72;90.05;96358.31;4988787;28;20038;-58
2021/11/24 03:02:47;;;;;;;47.55;21.60;;;;;;;0.54;90.04;96340.91;4982988;28;20072;-59
2021/11/24 03:05:16;;;;;;;49.72;23.42;;;;;;;0.28;90.96;96355.13;4987272;28;20046;-59
2021/11/24 03:07:44;;;;;;;49.85;22.48;;;;;;;0.46;91.13;96344.88;4986237;28;20057;-60
2021/11/24 03:10:11;;;;;;;48.15;22.25;;;;;;;0.19;91.56;96349.47;4988964;28;20066;-59
2021/11/24 03:12:38;;;;;;;46.25;21.65;;;;;;;0.27;91.19;96350.88;4983640;28;20462;-60
2021/11/24 03:15:07;;;;;;;48.00;22.27;;;;;;;0.05;92.32;96350.97;4988466;28;20399;-59
2021/11/24 03:17:35;;;;;;;43.75;20.33;;;;;;;0.12;92.15;96347.03;4989810;28;20034;-60
2021/11/24 03:20:03;;;;;;;40.17;20.60;;;;;;;0.40;90.68;96343.22;4988127;28;20034;-60
2021/11/24 03:22:31;;;;;;;42.90;20.52;;;;;;;0.14;92.88;96339.59;4988123;28;20581;-60
2021/11/24 03:24:58;;;;;;;41.80;20.48;;;;;;;0.38;91.51;96329.38;4979582;28;20089;-59
2021/11/24 03:27:28;;;;;;;47.40;20.35;;;;;;;0.62;90.39;96329.78;4988086;28;20046;-59
2021/11/24 03:29:57;;;;;;;48.90;22.83;;;;;;;0.65;89.90;96323.13;4971246;28;20051;-59
2021/11/24 03:32:25;;;;;;;40.85;19.80;;;;;;;0.45;91.18;96324.63;4971842;28;20043;-60
2021/11/24 03:34:52;;;;;;;45.60;21.23;;;;;;;0.60;90.34;96325.78;4984160;28;20503;-58
2021/11/24 03:37:19;;;;;;;38.53;18.45;;;;;;;0.72;89.37;96322.91;4991645;28;20077;-59
2021/11/24 03:39:47;;;;;;;40.08;19.58;;;;;;;0.85;89.62;96322.44;4986358;28;20057;-56
2021/11/24 03:42:16;;;;;;;44.35;19.95;;;;;;;0.80;89.31;96317.06;4984414;28;20419;-58
2021/11/24 03:44:43;;;;;;;43.08;20.52;;;;;;;0.52;90.35;96329.75;4977319;28;20047;-58
2021/11/24 03:47:11;;;;;;;45.55;20.52;;;;;;;0.20;92.09;96317.31;4991174;28;20038;-58
2021/11/24 03:49:38;;;;;;;48.05;20.67;;;;;;;0.48;91.48;96323.31;4989129;28;20050;-59
2021/11/24 03:52:05;;;;;;;47.67;21.65;;;;;;;0.42;91.63;96319.00;4989936;28;20049;-59
2021/11/24 03:54:33;;;;;;;45.33;20.05;;;;;;;0.39;91.77;96323.00;4985172;28;20047;-57
2021/11/24 03:57:00;;;;;;;40.58;18.88;;;;;;;0.21;92.51;96318.91;4989320;28;20058;-59
2021/11/24 03:59:27;;;;;;;44.70;20.52;;;;;;;0.31;93.14;96317.34;4988975;28;20534;-59
2021/11/24 04:01:54;;;;;;;47.13;19.05;;;;;;;0.45;92.10;96321.16;4978424;28;20051;-59
2021/11/24 04:04:21;;;;;;;47.28;20.33;;;;;;;0.41;92.16;96328.06;4986370;28;20046;-59
2021/11/24 04:06:48;;;;;;;43.03;20.13;;;;;;;0.14;93.02;96328.16;4973403;28;20047;-60
2021/11/24 04:09:15;;;;;;;47.80;20.52;;;;;;;0.36;92.87;96326.19;4984209;28;20130;-58
2021/11/24 04:11:43;;;;;;;42.78;18.50;;;;;;;0.40;91.92;96321.94;4972408;28;20137;-59
2021/11/24 04:14:10;;;;;;;45.53;20.17;;;;;;;0.25;92.67;96318.38;4991116;28;20112;-60
2021/11/24 04:16:37;;;;;;;49.83;20.45;;;;;;;0.13;93.40;96310.56;4983214;28;20046;-58
2021/11/24 04:19:05;;;;;;;57.38;22.08;;;;;;;-0.28;95.93;96312.97;4984695;28;20043;-59
2021/11/24 04:21:32;;;;;;;48.88;21.42;;;;;;;0.07;94.79;96306.31;4986379;28;20052;-60
2021/11/24 04:23:59;;;;;;;50.80;22.02;;;;;;;0.34;92.65;96306.19;4990701;28;20104;-60
2021/11/24 04:26:26;;;;;;;50.92;23.05;;;;;;;0.26;92.34;96314.66;4986966;28;20048;-58
2021/11/24 04:28:53;;;;;;;54.28;22.75;;;;;;;0.37;92.26;96314.47;4991514;28;20052;-59
2021/11/24 04:31:20;;;;;;;51.40;21.27;;;;;;;0.33;92.12;96301.94;4976718;28;20162;-59
2021/11/24 04:33:48;;;;;;;54.15;22.88;;;;;;;0.62;91.45;96307.69;5004835;28;20085;-57
2021/11/24 04:36:15;;;;;;;54.42;21.25;;;;;;;0.73;90.28;96293.34;4990417;28;20072;-53
2021/11/24 04:38:42;;;;;;;51.63;21.48;;;;;;;0.43;91.46;96305.44;4991251;28;20042;-52
2021/11/24 04:41:09;;;;;;;46.35;20.20;;;;;;;0.27;92.42;96309.09;4981406;28;20038;-59
2021/11/24 04:43:41;;;;;;;46.33;19.65;;;;;;;0.18;92.79;96300.78;4982382;28;20050;-60
2021/11/24 04:46:08;;;;;;;45.00;19.15;;;;;;;0.06;94.00;96302.81;4981829;28;20097;-58
2021/11/24 04:48:37;;;;;;;44.10;19.40;;;;;;;0.26;93.22;96302.19;4966635;28;20046;-59
2021/11/24 04:51:04;;;;;;;43.13;18.55;;;;;;;0.22;92.79;96306.38;4981387;28;20497;-59
2021/11/24 04:53:31;;;;;;;43.70;18.42;;;;;;;0.50;91.76;96304.44;4984015;28;20045;-58
2021/11/24 04:55:58;;;;;;;38.90;17.23;;;;;;;-0.03;93.61;96304.38;4982639;28;20437;-59
2021/11/24 04:58:25;;;;;;;38.83;16.52;;;;;;;-0.15;94.69;96309.06;4994523;28;20042;-59
2021/11/24 05:00:53;;;;;;;41.05;17.73;;;;;;;-0.14;95.07;96305.34;4989074;28;20039;-59
2021/11/24 05:03:20;;;;;;;37.03;17.13;;;;;;;0.02;94.81;96315.03;4990231;28;20050;-59
2021/11/24 05:05:47;;;;;;;39.75;17.92;;;;;;;-0.08;94.60;96310.44;4987291;28;20440;-60
2021/11/24 05:08:14;;;;;;;39.53;16.92;;;;;;;-0.36;95.36;96308.88;4995714;28;20051;-59
2021/11/24 05:10:41;;;;;;;35.13;16.83;;;;;;;-0.07;94.51;96314.69;4991800;28;20042;-60
2021/11/24 05:13:08;;;;;;;36.38;16.95;;;;;;;-0.13;94.12;96314.91;4986420;28;20139;-59
2021/11/24 05:15:39;;;;;;;32.80;16.95;;;;;;;0.07;93.30;96301.00;4985556;28;20574;-59
2021/11/24 05:18:07;;;;;;;32.22;15.30;;;;;;;-0.26;94.10;96303.69;4989675;28;20417;-59
2021/11/24 05:20:35;;;;;;;33.25;14.70;;;;;;;-0.13;94.47;96309.59;4994705;28;20054;-58
2021/11/24 05:23:04;;;;;;;34.13;14.93;;;;;;;-0.04;94.57;96310.72;4987852;28;20145;-59
2021/11/24 05:25:32;;;;;;;29.40;14.43;;;;;;;0.06;92.82;96302.81;4990285;28;20042;-59
2021/11/24 05:28:00;;;;;;;29.70;14.00;;;;;;;-0.11;92.74;96300.31;4976883;28;20043;-57
2021/11/24 05:30:28;;;;;;;38.40;15.68;;;;;;;-0.41;93.98;96295.56;4959800;28;20437;-59
2021/11/24 05:32:56;;;;;;;32.70;14.35;;;;;;;-0.64;95.25;96299.34;4992250;28;20058;-59
2021/11/24 05:35:25;;;;;;;34.55;16.30;;;;;;;-0.78;96.27;96291.00;4986718;28;20405;-60
2021/11/24 05:37:52;;;;;;;41.47;17.52;;;;;;;-0.77;96.46;96300.56;4975221;28;20042;-60
2021/11/24 05:40:23;;;;;;;36.03;14.98;;;;;;;-0.76;96.47;96291.53;4995123;28;20109;-57
2021/11/24 05:42:50;;;;;;;35.50;15.25;;;;;;;-0.67;96.05;96291.09;4981446;28;20050;-60
2021/11/24 05:48:09;;;;;;;36.30;15.55;;;;;;;-0.74;96.25;96296.59;4975959;28;20501;-60
2021/11/24 05:50:41;;;;;;;35.25;16.10;;;;;;;-0.06;93.73;96286.28;4960778;28;20676;-60
2021/11/24 05:53:08;;;;;;;33.80;15.00;;;;;;;-0.56;94.88;96284.78;4981205;28;20073;-59
2021/11/24 05:55:35;;;;;;;32.88;15.10;;;;;;;-0.88;96.36;96288.22;5011130;28;20487;-58
2021/11/24 05:58:02;;;;;;;30.73;13.85;;;;;;;-0.59;95.55;96288.75;4988147;28;20046;-59
2021/11/24 06:00:29;;;;;;;31.75;14.13;;;;;;;-0.86;96.36;96286.13;4974511;28;20050;-59
2021/11/24 06:02:56;;;;;;;31.25;14.30;;;;;;;-0.63;96.80;96290.31;4971500;28;20069;-60
2021/11/24 06:05:24;;;;;;;29.48;14.38;;;;;;;-0.01;93.59;96289.75;4984479;28;20427;-59
2021/11/24 06:07:55;;;;;;;28.20;14.32;;;;;;;-0.11;93.76;96295.00;4989822;28;20084;-60
2021/11/24 06:10:22;;;;;;;28.95;14.18;;;;;;;-0.41;94.11;96284.94;4975040;28;20054;-58
2021/11/24 06:12:49;;;;;;;35.35;15.85;;;;;;;-0.50;95.55;96294.41;5003549;28;20047;-55
2021/11/24 06:15:16;;;;;;;32.90;14.73;;;;;;;-0.42;95.02;96296.63;5005147;28;20047;-60
2021/11/24 06:17:45;;;;;;;31.08;14.18;;;;;;;-0.28;93.98;96289.03;4970948;28;20131;-60
2021/11/24 06:20:13;;;;;;;30.48;14.50;;;;;;;0.15;93.06;96300.50;4975142;28;20049;-58
2021/11/24 06:22:42;;;;;;;30.88;14.52;;;;;;;0.27;91.96;96293.13;4990567;28;20047;-59
2021/11/24 06:25:11;;;;;;;34.22;14.70;;;;;;;-0.13;92.95;96291.81;4985560;28;20050;-59
2021/11/24 06:27:41;;;;;;;30.85;14.70;;;;;;;-0.17;92.73;96289.91;4981507;28;20050;-60
2021/11/24 06:30:13;;;;;;;32.15;14.85;;;;;;;-0.20;93.45;96287.75;4985874;28;20125;-60
2021/11/24 06:32:40;;;;;;;33.20;15.75;;;;;;;-0.14;93.82;96284.88;4989969;28;20044;-56
2021/11/24 06:35:08;;;;;;;29.13;14.25;;;;;;;-0.02;92.67;96282.03;4977673;28;20054;-57
2021/11/24 06:37:37;;;;;;;28.02;15.18;;;;;;;-0.21;93.91;96288.81;4985927;28;20157;-53
2021/11/24 06:40:06;;;;;;;29.20;15.32;;;;;;;-0.02;92.99;96282.03;4959967;28;20492;-58
2021/11/24 06:42:34;;;;;;;31.55;14.75;;;;;;;-0.02;92.04;96284.69;4979393;28;20070;-59
2021/11/24 06:45:01;;;;;;;33.72;14.57;;;;;;;-0.26;93.04;96289.56;4987622;28;20070;-55
2021/11/24 06:47:28;;;;;;;31.35;14.27;;;;;;;-0.54;94.82;96293.34;4989456;28;20054;-55
2021/11/24 06:49:55;;;;;;;30.08;13.63;;;;;;;-0.54;95.33;96296.00;4990117;28;20096;-59
2021/11/24 06:52:22;;;;;;;32.97;14.32;;;;;;;-0.75;96.04;96295.81;4993755;28;20051;-59
2021/11/24 06:54:49;;;;;;;32.42;15.05;;;;;;;-0.70;95.62;96292.38;4986835;28;20137;-55
2021/11/24 06:57:17;;;;;;;35.83;15.90;;;;;;;-0.63;95.36;96292.19;4980401;28;20051;-52
2021/11/24 06:59:43;;;;;;;29.13;13.57;;;;;;;-0.79;97.01;96300.00;4976303;28;20181;-59
2021/11/24 07:02:10;;;;;;;32.13;14.30;;;;;;;-0.61;95.87;96298.06;4983896;28;20053;-59
2021/11/24 07:04:39;;;;;;;29.63;15.05;;;;;;;-0.80;96.26;96293.09;4983065;28;20047;-59
2021/11/24 07:07:06;;;;;;;28.75;13.85;;;;;;;-0.77;97.50;96300.56;4988244;28;20057;-55
2021/11/24 07:09:33;;;;;;;30.98;14.20;;;;;;;-0.53;96.51;96292.25;4991984;28;20481;-58
2021/11/24 07:12:01;;;;;;;30.85;15.25;;;;;;;-0.61;95.42;96300.72;4986958;28;20049;-57
2021/11/24 07:14:28;;;;;;;31.15;14.13;;;;;;;-0.49;95.79;96304.00;4987236;28;20477;-53
2021/11/24 07:16:55;;;;;;;29.20;14.35;;;;;;;-0.01;93.43;96295.06;4986831;28;20046;-55
2021/11/24 07:19:22;;;;;;;29.65;14.80;;;;;;;-0.22;93.71;96297.84;4992960;28;20050;-51
2021/11/24 07:21:49;;;;;;;31.98;15.73;;;;;;;0.07;94.20;96296.47;4991821;28;20133;-55
2021/11/24 07:24:18;;;;;;;29.77;14.48;;;;;;;0.37;92.07;96300.38;4986273;28;20485;-58
2021/11/24 07:26:45;;;;;;;31.77;14.15;;;;;;;0.16;92.77;96302.91;4972957;28;20047;-57
2021/11/24 07:29:14;;;;;;;30.05;14.50;;;;;;;0.10;93.15;96303.09;4978722;28;20043;-59
2021/11/24 07:31:41;;;;;;;36.50;15.40;;;;;;;-0.08;93.47;96312.31;4984438;28;20407;-59
2021/11/24 07:34:08;;;;;;;31.98;14.88;;;;;;;-0.38;94.57;96304.91;4963490;28;20177;-54
2021/11/24 07:36:35;;;;;;;29.05;14.50;;;;;;;-0.10;93.85;96301.13;4983738;28;20058;-58
2021/11/24 07:39:03;;;;;;;32.25;15.27;;;;;;;-0.35;94.99;96299.09;4982477;28;20041;-53
2021/11/24 07:41:29;;;;;;;32.08;15.73;;;;;;;-0.37;94.83;96296.66;4983211;28;20038;-53
2021/11/24 07:43:56;;;;;;;30.80;14.70;;;;;;;-0.06;94.02;96304.88;4985131;28;20534;-50
2021/11/24 07:46:24;;;;;;;31.15;15.77;;;;;;;-0.06;93.99;96288.94;4974764;28;20097;-54
2021/11/24 07:48:57;;;;;;;33.35;15.88;;;;;;;-0.35;94.44;96304.41;4993830;28;20749;-49
2021/11/24 07:51:26;;;;;;;32.22;15.00;;;;;;;-0.48;95.57;96300.28;4980944;28;20479;-50
2021/11/24 07:53:53;;;;;;;37.92;15.57;;;;;;;-0.57;96.35;96296.50;4986139;28;20066;-57
2021/11/24 07:56:23;;;;;;;34.42;15.77;;;;;;;-0.07;94.29;96295.28;4982250;28;20404;-54
2021/11/24 07:58:51;;;;;;;33.30;15.80;;;;;;;0.30;92.75;96295.28;4977414;28;20161;-56
2021/11/24 08:01:18;;;;;;;28.88;14.68;;;;;;;0.63;90.93;96287.97;4990920;28;20116;-53
2021/11/24 08:03:46;;;;;;;32.85;14.57;;;;;;;0.29;91.38;96287.53;4995645;28;20137;-51
2021/11/24 08:06:13;;;;;;;31.92;14.65;;;;;;;0.04;92.80;96281.00;4995010;28;20080;-52
2021/11/24 08:08:40;;;;;;;34.78;15.55;;;;;;;0.32;91.91;96281.69;4996819;28;20128;-50
2021/11/24 08:11:07;;;;;;;29.60;14.35;;;;;;;0.40;91.06;96279.34;4990738;28;20042;-53
2021/11/24 08:13:34;;;;;;;31.33;15.77;;;;;;;0.06;92.78;96288.72;4986889;28;20050;-52
2021/11/24 08:16:00;;;;;;;30.25;14.35;;;;;;;-0.03;93.66;96280.44;4989606;28;20448;-57
2021/11/24 08:18:28;;;;;;;30.50;14.48;;;;;;;0.08;92.62;96282.09;4984280;28;20416;-57
2021/11/24 08:20:59;;;;;;;29.40;14.48;;;;;;;0.32;92.35;96282.50;4985724;28;20065;-57
2021/11/24 08:23:27;;;;;;;30.60;14.95;;;;;;;0.39;91.71;96283.09;4991773;28;20042;-52
2021/11/24 08:25:56;;;;;;;31.85;15.57;;;;;;;0.49;91.60;96270.84;4977424;28;20046;-53
2021/11/24 08:28:23;;;;;;;30.08;14.57;;;;;;;0.18;93.19;96279.50;5000760;28;20043;-52
2021/11/24 08:30:51;;;;;;;30.83;14.45;;;;;;;0.20;92.83;96271.28;4987498;28;20064;-54
2021/11/24 08:33:18;;;;;;;26.27;13.95;;;;;;;0.13;93.94;96262.69;4992736;28;20041;-53
2021/11/24 08:35:45;;;;;;;34.55;15.20;;;;;;;-0.12;94.58;96268.66;4988147;28;20050;-57
2021/11/24 08:38:12;;;;;;;29.25;14.60;;;;;;;-0.21;95.20;96254.25;4986163;28;20061;-57
2021/11/24 08:40:39;;;;;;;30.50;14.15;;;;;;;0.19;93.73;96256.34;4988994;28;20038;-58
2021/11/24 08:43:06;;;;;;;33.90;15.80;;;;;;;0.47;91.82;96250.63;4984071;28;20068;-57
2021/11/24 08:45:34;;;;;;;30.08;13.40;;;;;;;0.56;91.42;96253.59;4986912;28;20046;-56
2021/11/24 08:48:04;;;;;;;25.52;13.15;;;;;;;0.22;92.74;96250.50;4993461;28;20043;-57
2021/11/24 08:50:33;;;;;;;27.55;14.15;;;;;;;-0.04;93.92;96241.56;4992217;28;20088;-48
2021/11/24 08:53:00;;;;;;;26.92;13.82;;;;;;;0.08;93.67;96231.53;4992290;28;20054;-58
2021/11/24 08:55:27;;;;;;;26.00;13.50;;;;;;;0.00;93.94;96237.38;4984079;28;20142;-53
2021/11/24 08:57:55;;;;;;;26.67;14.23;;;;;;;-0.08;94.92;96240.50;4984053;28;20429;-55
2021/11/24 09:00:23;;;;;;;26.98;12.88;;;;;;;0.05;94.30;96248.03;4987573;28;20077;-52
2021/11/24 09:02:50;;;;;;;27.88;13.30;;;;;;;0.44;92.95;96235.19;4990491;28;20039;-60
2021/11/24 09:05:23;;;;;;;27.50;13.02;;;;;;;0.17;92.93;96230.00;4988445;28;20051;-58
2021/11/24 09:07:50;;;;;;;25.45;12.85;;;;;;;-0.03;94.04;96236.00;4987334;28;20049;-60
2021/11/24 09:10:19;;;;;;;26.98;14.13;;;;;;;0.16;93.62;96231.06;4978479;28;20082;-56
2021/11/24 09:12:47;;;;;;;22.35;12.27;;;;;;;0.17;93.02;96243.31;4996654;28;20042;-53
2021/11/24 09:15:14;;;;;;;27.30;13.18;;;;;;;0.58;91.39;96232.81;4993799;28;20093;-50
2021/11/24 09:18:03;;;;;;;26.58;12.77;;;;;;;0.30;92.65;96231.41;4993381;28;20145;-58
2021/11/24 09:20:32;;;;;;;23.88;12.85;;;;;;;0.44;91.77;96232.50;4993549;28;20046;-49
2021/11/24 09:23:00;;;;;;;24.90;13.02;;;;;;;0.29;92.27;96229.78;4992679;28;20042;-59
2021/11/24 09:25:36;;;;;;;21.20;11.48;;;;;;;0.15;92.38;96229.44;4993172;28;20078;-58
2021/11/24 09:28:10;;;;;;;23.55;12.18;;;;;;;0.06;94.37;96236.31;4983658;28;20046;-57
2021/11/24 09:30:38;;;;;;;21.90;11.00;;;;;;;0.15;93.34;96232.09;4991223;28;20049;-58
2021/11/24 09:33:07;;;;;;;23.20;11.70;;;;;;;-0.06;93.57;96233.06;4989904;28;20050;-50
2021/11/24 09:35:34;;;;;;;22.67;11.40;;;;;;;-0.16;93.91;96232.97;4977081;28;20047;-55
2021/11/24 09:38:01;;;;;;;27.85;11.35;;;;;;;0.10;92.59;96229.44;4987515;28;20418;-49
2021/11/24 09:40:29;;;;;;;21.48;11.88;;;;;;;0.49;91.59;96226.44;4993759;28;20447;-52
2021/11/24 09:43:00;;;;;;;21.33;11.20;;;;;;;0.44;90.55;96223.72;4990226;28;20050;-57
2021/11/24 09:45:28;;;;;;;20.48;11.05;;;;;;;0.33;90.37;96220.25;4995295;28;20132;-56
2021/11/24 09:47:58;;;;;;;21.48;11.07;;;;;;;-0.07;92.53;96221.59;4991401;28;20133;-53
2021/11/24 09:50:32;;;;;;;18.20;10.07;;;;;;;-0.05;92.87;96213.38;4988911;28;20050;-60
2021/11/24 09:53:00;;;;;;;20.55;10.90;;;;;;;-0.03;92.99;96205.97;4988589;28;20046;-60
2021/11/24 09:55:33;;;;;;;20.33;10.88;;;;;;;-0.06;92.30;96204.59;4994887;28;20045;-55
2021/11/24 09:58:00;;;;;;;20.70;11.20;;;;;;;0.17;91.48;96194.63;5000846;28;20057;-61
2021/11/24 10:00:28;;;;;;;19.20;10.13;;;;;;;-0.06;92.37;96195.84;4994668;28;20046;-54
2021/11/24 10:02:56;;;;;;;18.15;9.70;;;;;;;-0.06;92.33;96187.84;4993520;28;20114;-57
2021/11/24 10:05:26;;;;;;;20.98;11.32;;;;;;;0.28;90.75;96195.44;5001737;28;20046;-56
2021/11/24 10:07:54;;;;;;;20.00;10.55;;;;;;;0.55;89.59;96185.41;4990542;28;20133;-53
2021/11/24 10:10:21;;;;;;;16.88;9.75;;;;;;;0.41;89.68;96179.00;4993456;28;20046;-60
2021/11/24 10:12:49;;;;;;;19.10;9.82;;;;;;;0.25;90.65;96175.47;4991214;28;20046;-54
2021/11/24 10:15:41;;;;;;;19.33;10.18;;;;;;;-0.12;92.01;96172.94;4990991;28;20042;-55
2021/11/24 10:18:24;;;;;;;17.47;9.67;;;;;;;0.19;90.32;96168.53;4983340;28;20050;-54
2021/11/24 10:21:09;;;;;;;18.02;9.68;;;;;;;0.25;90.02;96164.84;4991116;28;20058;-53
2021/11/24 10:23:40;;;;;;;17.92;9.43;;;;;;;0.22;90.21;96158.16;4976050;28;20055;-50
2021/11/24 10:26:32;;;;;;;15.68;8.48;;;;;;;-0.17;92.03;96157.72;4990272;28;20050;-52
2021/11/24 10:29:08;;;;;;;18.73;9.82;;;;;;;-0.16;92.08;96148.72;4998486;28;20081;-50
2021/11/24 10:31:49;;;;;;;17.52;9.70;;;;;;;-0.26;92.70;96143.31;4988197;28;20525;-50
2021/11/24 10:34:29;;;;;;;14.73;8.65;;;;;;;-0.33;92.94;96146.19;4992177;28;20046;-50
2021/11/24 10:37:06;;;;;;;19.42;9.05;;;;;;;0.23;91.45;96151.81;4985489;28;20435;-56
2021/11/24 10:39:46;;;;;;;19.92;9.77;;;;;;;0.19;90.47;96145.38;5000433;28;20085;-50
2021/11/24 10:42:15;;;;;;;17.13;9.35;;;;;;;-0.12;91.95;96139.16;4981782;28;20054;-53
2021/11/24 10:44:48;;;;;;;17.92;9.00;;;;;;;-0.32;91.81;96128.41;4983263;28;20138;-51
2021/11/24 10:47:17;;;;;;;16.35;8.63;;;;;;;0.29;89.33;96136.63;4983962;28;20050;-53
2021/11/24 10:49:52;;;;;;;14.38;8.40;;;;;;;0.17;88.98;96120.91;4981006;28;20856;-50
2021/11/24 10:52:30;;;;;;;14.48;7.78;;;;;;;0.42;88.53;96114.03;4985271;28;20049;-51
2021/11/24 10:55:13;;;;;;;16.00;9.15;;;;;;;0.10;90.04;96116.88;4993447;28;20042;-54
2021/11/24 10:57:42;;;;;;;15.85;8.32;;;;;;;-0.78;91.94;96115.66;4981983;28;20040;-51
2021/11/24 11:00:16;;;;;;;16.42;8.93;;;;;;;-0.52;92.89;96105.16;4985721;28;20073;-54
2021/11/24 11:02:47;;;;;;;15.85;8.65;;;;;;;-0.29;91.88;96102.13;4997494;28;20129;-55
2021/11/24 11:05:22;;;;;;;14.00;8.07;;;;;;;-0.31;91.86;96098.09;4989301;28;20137;-52
2021/11/24 11:07:49;;;;;;;15.43;9.30;;;;;;;-0.23;91.57;96105.56;5006924;28;20121;-54
2021/11/24 11:10:17;;;;;;;15.32;8.60;;;;;;;-0.27;92.19;96101.84;4983673;28;20038;-52
2021/11/24 11:12:47;;;;;;;16.88;8.98;;;;;;;0.20;90.18;96099.09;5009150;28;20141;-52
2021/11/24 11:15:16;;;;;;;16.33;9.15;;;;;;;0.11;90.02;96097.22;4981950;28;20120;-53
2021/11/24 11:17:58;;;;;;;16.88;8.98;;;;;;;0.28;89.33;96091.66;4988888;28;20042;-57
2021/11/24 11:20:41;;;;;;;15.77;8.57;;;;;;;-0.09;90.60;96085.44;4989043;28;20153;-52
2021/11/24 11:23:12;;;;;;;;;;;;;;;0.34;88.50;96086.09;4982565;28;20042;-51
2021/11/24 11:25:45;;;;;;;17.27;8.52;;;;;;;-0.15;90.54;96083.81;4990932;28;19977;-53
2021/11/24 11:28:13;;;;;;;17.05;8.82;;;;;;;-0.13;90.44;96078.22;4989762;28;20129;-51
2021/11/24 11:30:43;;;;;;;17.58;9.18;;;;;;;0.01;89.98;96071.38;4985312;28;20042;-54